Pine Forest, Texas
Current Conditions -  °F | °C
As of 4:15 PM on Thursday 23 Oct 2014 (Local Time) from KBMT Reporting Station
Clear Clear  
Wind Chill: 73°   Ceiling: Unl
Heat Index: 73°   Visibility: 10mi
Dew Point: 53°   Wind: 6mph
Humidity: 49%   Direction: 20°NNE
Pressure: 30.07"   Gusts: NA
Location:  30.1707°N, 94.0082°W
Report Text: KBMT 232115Z AUTO 02005KT 10SM CLR 23/11 A3007 RMK AO2 T02270114
Loading
Personal Weather Stations






























Interactive Weather Map
Tropical Storm Tracking
New forecast layout! Learn more

10-Day Weather Forecast

Advertisements
Track Severe Weather on mobile